Nikishka, Alaska
Current Conditions -  °F | °C
As of 3:53 AM on Friday 28 Nov 2014 (Local Time) from PAEN Reporting Station
Scattered Clouds Scattered Clouds  
Wind Chill: 16°   Ceiling: Unl
Heat Index: 16°   Visibility: 10mi
Dew Point: 14°   Wind: 3mph
Humidity: 92%   Direction: 20°NNE
Pressure: 30.19"   Gusts: NA
Location:  60.7377°N, 151.324°W
Report Text: PAEN 281253Z AUTO 02003KT 10SM SCT120 M09/M10 A3019 RMK AO2 SLP227 T10891100 TSNO
Loading
Personal Weather Stations






























Interactive Weather Map New forecast layout! Learn more

10-Day Weather Forecast

Advertisements
Track Severe Weather on mobile